Time;durP1;ratioP1;P1;durP2;ratioP2;P2;SDS_P1;SDS_P2;PMS_P1;PMS_P2;Temp;Humidity;BMP_temperature;BMP_pressure;BME280_temperature;BME280_humidity;BME280_pressure;Samples;Min_cycle;Max_cycle;Signal;HPM_P1;HPM_P2
2021/11/30 00:02:25;;;;;;;11.40;7.30;;;3.60;99.90;;;;;;4974992;28;20449;-55
2021/11/30 00:04:50;;;;;;;6.70;5.87;;;3.60;99.90;;;;;;4977044;28;20519;-53
2021/11/30 00:07:17;;;;;;;14.20;7.43;;;3.50;99.90;;;;;;4976600;28;20189;-55
2021/11/30 00:12:17;;;;;;;8.00;6.57;;;3.50;99.90;;;;;;4977765;28;20438;-51
2021/11/30 00:14:46;;;;;;;9.67;6.67;;;3.60;99.90;;;;;;4972482;28;20215;-55
2021/11/30 00:17:12;;;;;;;8.17;6.27;;;3.60;99.90;;;;;;4979897;28;20433;-58
2021/11/30 00:19:39;;;;;;;9.17;7.00;;;3.60;99.90;;;;;;4974010;28;20495;-55
2021/11/30 00:22:06;;;;;;;15.90;6.70;;;3.60;99.90;;;;;;4974358;28;20483;-56
2021/11/30 00:24:32;;;;;;;11.17;7.20;;;3.60;99.90;;;;;;4978588;28;20459;-55
2021/11/30 00:26:59;;;;;;;9.50;7.53;;;3.60;99.90;;;;;;4973689;28;20430;-58
2021/11/30 00:29:25;;;;;;;12.87;7.57;;;3.70;99.90;;;;;;4976439;28;20471;-57
2021/11/30 00:31:51;;;;;;;9.30;6.70;;;3.70;99.90;;;;;;4977751;28;20437;-57
2021/11/30 00:34:17;;;;;;;8.93;6.67;;;3.70;99.90;;;;;;4973144;28;20469;-53
2021/11/30 00:36:43;;;;;;;8.20;6.47;;;3.70;99.90;;;;;;4975321;28;20481;-52
2021/11/30 00:39:09;;;;;;;9.70;6.70;;;3.70;99.90;;;;;;4975202;28;20224;-55
2021/11/30 00:41:34;;;;;;;10.73;6.40;;;3.70;99.90;;;;;;4975108;28;20186;-56
2021/11/30 00:44:00;;;;;;;9.33;5.80;;;3.70;99.90;;;;;;4973116;28;21270;-52
2021/11/30 00:46:34;;;;;;;10.83;6.80;;;3.70;99.90;;;;;;4980048;28;20461;-56
2021/11/30 00:49:03;;;;;;;9.70;7.03;;;3.80;99.90;;;;;;4974840;28;20473;-55
2021/11/30 00:51:29;;;;;;;9.20;6.00;;;3.80;99.90;;;;;;4972969;28;20516;-53
2021/11/30 00:53:55;;;;;;;7.33;5.30;;;3.80;99.90;;;;;;4974884;28;20528;-53
2021/11/30 00:56:20;;;;;;;8.50;5.83;;;3.80;99.90;;;;;;4974955;28;20461;-53
2021/11/30 00:58:48;;;;;;;9.23;6.70;;;3.90;99.90;;;;;;4977172;28;20554;-58
2021/11/30 01:01:14;;;;;;;8.53;6.80;;;3.90;99.90;;;;;;4973807;28;20201;-55
2021/11/30 01:03:40;;;;;;;9.37;5.80;;;3.90;99.90;;;;;;4973730;28;20816;-51
2021/11/30 01:06:06;;;;;;;7.23;5.83;;;3.80;99.90;;;;;;4978066;28;20437;-55
2021/11/30 01:08:32;;;;;;;8.30;6.50;;;3.90;99.90;;;;;;4974019;28;20454;-55
2021/11/30 01:10:58;;;;;;;11.17;6.50;;;3.90;99.90;;;;;;4973014;28;20441;-53
2021/11/30 01:13:24;;;;;;;12.03;6.13;;;3.90;99.90;;;;;;4976756;28;20205;-51
2021/11/30 01:15:50;;;;;;;8.20;5.00;;;3.90;99.90;;;;;;4979632;28;20557;-54
2021/11/30 01:18:16;;;;;;;8.30;6.80;;;3.90;99.90;;;;;;4975888;28;20552;-55
2021/11/30 01:20:43;;;;;;;9.67;4.37;;;3.90;99.90;;;;;;4976947;28;20531;-53
2021/11/30 01:23:09;;;;;;;11.67;7.20;;;3.90;99.90;;;;;;4978186;28;20434;-56
2021/11/30 01:25:35;;;;;;;9.13;5.90;;;3.80;99.90;;;;;;4978756;28;20520;-56
2021/11/30 01:28:00;;;;;;;9.97;6.00;;;3.90;99.90;;;;;;4977442;28;20197;-55
2021/11/30 01:30:26;;;;;;;9.37;7.00;;;3.90;99.90;;;;;;4963934;28;21052;-52
2021/11/30 01:32:52;;;;;;;16.13;5.30;;;3.90;99.90;;;;;;4979143;28;20245;-54
2021/11/30 01:35:19;;;;;;;7.40;6.03;;;3.90;99.90;;;;;;4978472;28;20670;-57
2021/11/30 01:37:46;;;;;;;6.73;5.67;;;3.90;99.90;;;;;;4960960;28;20883;-53
2021/11/30 01:40:14;;;;;;;7.73;4.90;;;3.90;99.90;;;;;;4979150;28;20465;-53
2021/11/30 01:42:44;;;;;;;5.33;4.70;;;3.90;99.90;;;;;;4982076;28;20701;-53
2021/11/30 01:45:19;;;;;;;7.00;5.50;;;3.90;99.90;;;;;;4980962;28;20462;-54
2021/11/30 01:50:30;;;;;;;9.07;5.73;;;4.00;99.90;;;;;;4978772;28;20437;-56
2021/11/30 01:52:56;;;;;;;7.93;4.90;;;3.90;99.90;;;;;;4975071;28;20433;-56
2021/11/30 01:55:22;;;;;;;8.30;4.70;;;4.00;99.90;;;;;;4980011;28;20444;-56
2021/11/30 01:57:51;;;;;;;9.40;4.63;;;4.00;99.90;;;;;;4983297;28;20585;-55
2021/11/30 02:00:18;;;;;;;7.20;4.40;;;4.00;99.90;;;;;;4976125;28;20810;-55
2021/11/30 02:02:44;;;;;;;8.93;4.70;;;4.00;99.90;;;;;;4977856;28;20441;-55
2021/11/30 02:05:11;;;;;;;8.33;5.37;;;3.90;99.90;;;;;;4977933;28;21296;-56
2021/11/30 02:07:37;;;;;;;7.00;5.50;;;3.90;99.90;;;;;;4976959;28;20850;-55
2021/11/30 02:10:08;;;;;;;9.73;5.40;;;4.00;99.90;;;;;;4977385;28;20476;-54
2021/11/30 02:12:37;;;;;;;8.13;5.03;;;4.00;99.90;;;;;;4975106;28;20863;-55
2021/11/30 02:15:06;;;;;;;9.57;6.17;;;4.00;99.90;;;;;;4963216;28;21302;-55
2021/11/30 02:17:32;;;;;;;7.03;4.80;;;4.00;99.90;;;;;;4982924;28;20445;-52
2021/11/30 02:19:59;;;;;;;9.33;4.77;;;4.00;99.90;;;;;;4974894;28;20470;-55
2021/11/30 02:22:26;;;;;;;8.53;6.07;;;4.00;99.90;;;;;;4980697;28;20437;-56
2021/11/30 02:24:52;;;;;;;9.80;5.53;;;4.00;99.90;;;;;;4976481;28;20464;-52
2021/11/30 02:27:19;;;;;;;12.23;5.83;;;4.00;99.90;;;;;;4977822;28;20437;-57
2021/11/30 02:29:45;;;;;;;5.20;4.07;;;4.00;99.90;;;;;;4977441;28;20851;-54
2021/11/30 02:32:10;;;;;;;5.80;4.10;;;4.00;99.90;;;;;;4975304;28;20433;-53
2021/11/30 02:34:37;;;;;;;5.00;4.17;;;4.00;99.90;;;;;;4977218;28;20190;-51
2021/11/30 02:37:06;;;;;;;7.23;4.63;;;4.00;99.90;;;;;;4975545;28;20194;-52
2021/11/30 02:39:33;;;;;;;7.63;4.87;;;4.00;99.90;;;;;;4977935;28;20516;-56
2021/11/30 02:42:02;;;;;;;6.33;5.37;;;4.00;99.90;;;;;;4959672;28;20817;-54
2021/11/30 02:44:28;;;;;;;9.53;5.30;;;4.00;99.90;;;;;;4975978;28;20566;-56
2021/11/30 02:47:00;;;;;;;7.57;4.80;;;4.00;99.90;;;;;;4978405;28;20437;-54
2021/11/30 02:49:29;;;;;;;9.77;6.00;;;4.00;99.90;;;;;;4977486;28;20441;-54
2021/11/30 02:52:09;;;;;;;8.13;4.37;;;4.00;99.90;;;;;;4962548;28;21259;-55
2021/11/30 02:54:37;;;;;;;7.13;4.53;;;4.00;99.90;;;;;;4977600;28;20437;-58
2021/11/30 02:57:05;;;;;;;7.60;6.10;;;4.00;99.90;;;;;;4976946;28;20440;-53
2021/11/30 02:59:34;;;;;;;4.40;4.00;;;4.00;99.90;;;;;;4972539;28;20543;-55
2021/11/30 03:02:10;;;;;;;7.77;5.47;;;4.10;99.90;;;;;;4975281;28;20845;-54
2021/11/30 03:04:36;;;;;;;8.27;5.30;;;4.00;99.90;;;;;;4975008;28;20529;-54
2021/11/30 03:07:02;;;;;;;6.37;5.67;;;4.10;99.90;;;;;;4978886;28;20438;-53
2021/11/30 03:09:28;;;;;;;10.97;5.20;;;4.10;99.90;;;;;;4979677;28;20216;-53
2021/11/30 03:11:55;;;;;;;7.43;5.33;;;4.10;99.90;;;;;;4959328;28;20437;-53
2021/11/30 03:14:22;;;;;;;10.20;5.20;;;4.10;99.90;;;;;;4979324;28;20278;-51
2021/11/30 03:16:49;;;;;;;6.23;4.67;;;4.10;99.90;;;;;;4978189;28;20426;-51
2021/11/30 03:19:16;;;;;;;7.03;5.37;;;4.10;99.90;;;;;;4974672;28;20461;-56
2021/11/30 03:21:43;;;;;;;6.33;4.23;;;4.10;99.90;;;;;;4979301;28;20830;-56
2021/11/30 03:24:09;;;;;;;6.10;5.00;;;4.20;99.90;;;;;;4978855;28;21216;-55
2021/11/30 03:26:35;;;;;;;6.07;3.90;;;4.20;99.90;;;;;;4978638;28;20515;-55
2021/11/30 03:29:00;;;;;;;7.70;4.30;;;4.20;99.90;;;;;;4976342;28;20227;-53
2021/11/30 03:34:01;;;;;;;9.33;3.90;;;4.10;99.90;;;;;;4979025;28;20170;-54
2021/11/30 03:36:29;;;;;;;5.67;3.43;;;4.00;99.90;;;;;;4975275;28;20860;-56
2021/11/30 03:38:56;;;;;;;6.47;3.47;;;4.00;99.90;;;;;;4974358;28;20682;-55
2021/11/30 03:41:22;;;;;;;8.93;4.57;;;3.90;99.90;;;;;;4979303;28;20487;-58
2021/11/30 03:43:48;;;;;;;6.83;3.30;;;3.90;99.90;;;;;;4974169;28;20472;-53
2021/11/30 03:46:14;;;;;;;4.70;3.57;;;3.80;99.90;;;;;;4979278;28;20425;-57
2021/11/30 03:48:39;;;;;;;6.30;3.50;;;3.80;99.90;;;;;;4971842;28;20465;-55
2021/11/30 03:51:05;;;;;;;5.90;3.70;;;3.80;99.90;;;;;;4971377;28;20202;-54
2021/11/30 03:53:31;;;;;;;4.97;3.20;;;3.80;99.90;;;;;;4975193;28;20794;-57
2021/11/30 03:55:56;;;;;;;10.27;3.20;;;3.80;99.90;;;;;;4973038;28;20711;-55
2021/11/30 03:58:22;;;;;;;5.00;3.67;;;3.80;99.90;;;;;;4967528;28;20903;-54
2021/11/30 04:00:47;;;;;;;6.50;3.37;;;3.80;99.90;;;;;;4975441;28;20188;-56
2021/11/30 04:03:13;;;;;;;6.63;3.30;;;3.80;99.90;;;;;;4973837;28;20189;-54
2021/11/30 04:05:39;;;;;;;4.90;3.67;;;3.70;99.90;;;;;;4977211;28;20202;-55
2021/11/30 04:08:05;;;;;;;3.80;2.53;;;3.70;99.90;;;;;;4975012;28;21133;-57
2021/11/30 04:10:31;;;;;;;3.80;2.70;;;3.70;99.90;;;;;;4959920;28;20217;-53
2021/11/30 04:12:56;;;;;;;5.00;3.40;;;3.70;99.90;;;;;;4974940;28;20282;-52
2021/11/30 04:15:22;;;;;;;5.40;2.63;;;3.70;99.90;;;;;;4976543;28;20455;-52
2021/11/30 04:17:48;;;;;;;3.10;2.80;;;3.70;99.90;;;;;;4974327;28;20186;-56
2021/11/30 04:20:13;;;;;;;6.90;3.30;;;3.80;99.90;;;;;;4975164;28;20924;-52
2021/11/30 04:22:39;;;;;;;4.30;3.60;;;3.70;99.90;;;;;;4977993;28;20213;-51
2021/11/30 04:25:06;;;;;;;5.30;3.43;;;3.80;99.90;;;;;;4973997;28;20252;-50
2021/11/30 04:27:32;;;;;;;2.90;2.30;;;3.70;99.90;;;;;;4973089;28;20429;-55
2021/11/30 04:29:58;;;;;;;4.10;3.43;;;3.80;99.90;;;;;;4976418;28;20457;-56
2021/11/30 04:32:25;;;;;;;4.70;3.30;;;3.80;99.90;;;;;;4973304;28;20437;-53
2021/11/30 04:34:50;;;;;;;4.03;2.73;;;3.80;99.90;;;;;;4976447;28;20441;-55
2021/11/30 04:37:16;;;;;;;7.50;3.73;;;3.80;99.90;;;;;;4976914;28;20498;-53
2021/11/30 04:39:41;;;;;;;4.83;3.77;;;3.80;99.90;;;;;;4975204;28;20864;-55
2021/11/30 04:42:07;;;;;;;3.77;2.70;;;3.80;99.90;;;;;;4978580;28;20196;-50
2021/11/30 04:44:35;;;;;;;5.47;2.67;;;3.80;99.90;;;;;;4974798;28;20209;-57
2021/11/30 04:47:06;;;;;;;6.23;3.23;;;3.80;99.90;;;;;;4977392;28;20440;-53
2021/11/30 04:51:58;;;;;;;3.57;3.00;;;3.80;99.90;;;;;;4980634;28;20437;-54
2021/11/30 04:54:24;;;;;;;4.33;3.30;;;3.90;99.90;;;;;;4980536;28;20181;-53
2021/11/30 04:56:50;;;;;;;4.60;4.20;;;3.80;99.90;;;;;;4977120;28;20483;-52
2021/11/30 04:59:17;;;;;;;7.13;3.77;;;3.70;99.90;;;;;;4980529;28;20491;-56
2021/11/30 05:01:43;;;;;;;4.77;3.33;;;3.80;99.90;;;;;;4978922;28;21030;-51
2021/11/30 05:04:09;;;;;;;2.77;2.33;;;3.80;99.90;;;;;;4978759;28;20487;-52
2021/11/30 05:06:36;;;;;;;10.03;3.90;;;3.80;99.90;;;;;;4981558;28;20436;-52
2021/11/30 05:09:02;;;;;;;4.77;3.20;;;3.70;99.90;;;;;;4981279;28;20206;-52
2021/11/30 05:11:28;;;;;;;7.30;3.60;;;3.70;99.90;;;;;;4978244;28;20524;-54
2021/11/30 05:13:54;;;;;;;4.60;3.63;;;3.70;99.90;;;;;;4979749;28;20528;-51
2021/11/30 05:16:20;;;;;;;3.87;3.07;;;3.60;99.90;;;;;;4980615;28;20993;-51
2021/11/30 05:18:46;;;;;;;9.00;4.20;;;3.50;99.90;;;;;;4981951;28;20209;-56
2021/11/30 05:21:11;;;;;;;7.63;3.50;;;3.50;99.90;;;;;;4977251;28;20186;-52
2021/11/30 05:23:38;;;;;;;9.33;4.23;;;3.40;99.90;;;;;;4965935;28;20187;-52
2021/11/30 05:26:05;;;;;;;4.70;3.40;;;3.30;99.90;;;;;;4980924;28;20501;-50
2021/11/30 05:28:33;;;;;;;4.67;3.93;;;3.40;99.90;;;;;;4980539;28;20856;-52
2021/11/30 05:31:00;;;;;;;3.47;2.70;;;3.30;99.90;;;;;;4962305;28;20803;-54
2021/11/30 05:33:26;;;;;;;7.70;6.20;;;3.30;99.90;;;;;;4986498;28;20420;-51
2021/11/30 05:35:51;;;;;;;7.57;4.10;;;3.30;99.90;;;;;;4977244;28;20499;-53
2021/11/30 05:38:17;;;;;;;3.53;3.00;;;3.30;99.90;;;;;;4977424;28;21155;-55
2021/11/30 05:40:42;;;;;;;7.53;4.03;;;3.20;99.90;;;;;;4976490;28;20190;-51
2021/11/30 05:43:09;;;;;;;5.03;3.77;;;3.20;99.90;;;;;;4976138;28;20237;-53
2021/11/30 05:45:35;;;;;;;9.30;3.77;;;3.10;99.90;;;;;;4981109;28;20609;-52
2021/11/30 05:48:00;;;;;;;12.20;3.20;;;3.10;99.90;;;;;;4978056;28;20476;-53
2021/11/30 05:50:26;;;;;;;4.00;3.53;;;3.10;99.90;;;;;;4976284;28;20538;-52
2021/11/30 05:52:52;;;;;;;4.23;3.27;;;3.00;99.90;;;;;;4976172;28;20177;-50
2021/11/30 05:55:17;;;;;;;7.90;4.97;;;3.10;99.90;;;;;;4975421;28;20187;-55
2021/11/30 05:57:43;;;;;;;5.57;4.07;;;3.00;99.90;;;;;;4983536;28;20193;-58
2021/11/30 06:00:13;;;;;;;6.13;3.33;;;3.00;99.90;;;;;;4979972;28;20255;-57
2021/11/30 06:02:54;;;;;;;6.10;4.27;;;3.00;99.90;;;;;;4976027;28;20446;-50
2021/11/30 06:05:19;;;;;;;4.80;4.17;;;2.90;99.90;;;;;;4980989;28;20484;-55
2021/11/30 06:07:45;;;;;;;4.97;3.70;;;2.90;99.90;;;;;;4978128;28;20437;-51
2021/11/30 06:10:11;;;;;;;5.17;3.67;;;2.80;99.90;;;;;;4978044;28;20254;-52
2021/11/30 06:12:36;;;;;;;5.47;4.23;;;2.70;99.90;;;;;;4982426;28;20719;-52
2021/11/30 06:15:02;;;;;;;7.07;3.80;;;2.80;99.90;;;;;;4978488;28;20299;-56
2021/11/30 06:17:28;;;;;;;4.73;4.03;;;2.70;99.90;;;;;;4978740;28;20201;-58
2021/11/30 06:19:54;;;;;;;3.23;2.70;;;2.80;99.90;;;;;;4983120;28;20470;-62
2021/11/30 06:22:19;;;;;;;5.57;3.70;;;2.70;99.90;;;;;;4980410;28;20198;-55
2021/11/30 06:24:45;;;;;;;5.37;4.10;;;2.60;99.90;;;;;;4976813;28;20209;-53
2021/11/30 06:27:10;;;;;;;5.37;4.03;;;2.60;99.90;;;;;;4974288;28;20190;-52
2021/11/30 06:29:36;;;;;;;5.27;3.00;;;2.60;99.90;;;;;;4973436;28;20949;-55
2021/11/30 06:32:02;;;;;;;6.07;4.30;;;2.50;99.90;;;;;;4973167;28;20186;-54
2021/11/30 06:34:27;;;;;;;4.00;3.43;;;2.50;99.90;;;;;;4970998;28;20278;-55
2021/11/30 06:36:53;;;;;;;4.97;3.80;;;2.50;99.90;;;;;;4974496;28;20192;-54
2021/11/30 06:39:18;;;;;;;11.87;5.23;;;2.40;99.90;;;;;;4974090;28;20292;-56
2021/11/30 06:41:44;;;;;;;4.87;4.23;;;2.40;99.90;;;;;;4974075;28;20263;-55
2021/11/30 06:44:10;;;;;;;5.43;4.63;;;2.40;99.90;;;;;;4974748;28;20224;-53
2021/11/30 06:46:35;;;;;;;5.90;4.43;;;2.40;99.90;;;;;;4977203;28;20543;-53
2021/11/30 06:49:01;;;;;;;5.90;5.00;;;2.30;99.90;;;;;;4975627;28;20221;-52
2021/11/30 06:51:27;;;;;;;7.80;4.87;;;2.30;99.90;;;;;;4976344;28;20539;-55
2021/11/30 06:53:52;;;;;;;5.70;4.40;;;2.30;99.90;;;;;;4972778;28;20201;-56
2021/11/30 06:56:18;;;;;;;4.67;3.83;;;2.30;99.90;;;;;;4973376;28;20187;-56
2021/11/30 06:58:44;;;;;;;4.93;3.60;;;2.30;99.90;;;;;;4974147;28;20304;-55
2021/11/30 07:01:11;;;;;;;4.27;2.70;;;2.30;99.90;;;;;;4971900;28;20193;-52
2021/11/30 07:03:37;;;;;;;7.10;4.37;;;2.30;99.90;;;;;;4974367;28;20184;-53
2021/11/30 07:14:07;;;;;;;7.60;4.40;;;2.20;99.90;;;;;;4972119;28;20803;-51
2021/11/30 07:16:33;;;;;;;6.80;4.63;;;2.20;99.90;;;;;;4978515;28;20441;-54
2021/11/30 07:18:59;;;;;;;5.13;4.30;;;2.20;99.90;;;;;;4978391;28;20217;-55
2021/11/30 07:21:28;;;;;;;9.87;4.90;;;2.20;99.90;;;;;;4973438;28;20431;-54
2021/11/30 07:23:55;;;;;;;4.17;3.67;;;2.30;99.90;;;;;;4978590;28;20437;-53
2021/11/30 07:26:22;;;;;;;7.03;4.77;;;2.30;99.90;;;;;;4965310;28;20429;-53
2021/11/30 07:28:48;;;;;;;7.90;4.63;;;2.20;99.90;;;;;;4973156;28;20464;-52
2021/11/30 07:31:15;;;;;;;8.63;4.00;;;2.30;99.90;;;;;;4980928;28;20429;-53
2021/11/30 07:33:44;;;;;;;7.73;4.40;;;2.30;99.90;;;;;;4969837;28;20230;-52
2021/11/30 07:36:12;;;;;;;4.40;3.70;;;2.30;99.90;;;;;;4977660;28;21059;-55
2021/11/30 07:38:39;;;;;;;4.57;3.70;;;2.30;99.90;;;;;;4977647;28;21041;-53
2021/11/30 07:41:05;;;;;;;5.07;4.00;;;2.30;99.90;;;;;;4972649;28;20475;-54
2021/11/30 07:43:31;;;;;;;4.57;3.60;;;2.40;99.90;;;;;;4977053;28;20428;-54
2021/11/30 07:45:58;;;;;;;4.43;3.40;;;2.40;99.90;;;;;;4975937;28;20965;-55
2021/11/30 07:48:25;;;;;;;7.33;3.20;;;2.40;99.90;;;;;;4963313;28;21059;-53
2021/11/30 07:50:51;;;;;;;4.13;3.00;;;2.50;99.90;;;;;;4976687;28;20436;-55
2021/11/30 07:53:17;;;;;;;6.50;3.60;;;2.50;99.90;;;;;;4973957;28;20518;-54
2021/11/30 07:55:43;;;;;;;4.17;2.80;;;2.50;99.90;;;;;;4974194;28;20737;-55
2021/11/30 07:58:09;;;;;;;5.00;3.50;;;2.50;99.90;;;;;;4976418;28;20193;-57
2021/11/30 08:00:35;;;;;;;6.23;3.87;;;2.50;99.90;;;;;;4972702;28;20444;-58
2021/11/30 08:03:02;;;;;;;5.67;4.50;;;2.50;99.90;;;;;;4972849;28;20190;-57
2021/11/30 08:05:28;;;;;;;8.40;4.20;;;2.40;99.90;;;;;;4975996;28;20831;-56
2021/11/30 08:07:54;;;;;;;5.97;5.27;;;2.50;99.90;;;;;;4977916;28;20452;-59
2021/11/30 08:10:22;;;;;;;6.73;4.60;;;2.40;99.90;;;;;;4973591;28;20468;-57
2021/11/30 08:12:49;;;;;;;3.77;3.47;;;2.40;99.90;;;;;;4974450;28;20188;-58
2021/11/30 08:15:16;;;;;;;4.43;4.00;;;2.40;99.90;;;;;;4976705;28;20433;-56
2021/11/30 08:17:42;;;;;;;6.20;4.20;;;2.30;99.90;;;;;;4973300;28;20531;-56
2021/11/30 08:20:08;;;;;;;7.57;3.73;;;2.30;99.90;;;;;;4975071;28;21067;-54
2021/11/30 08:22:36;;;;;;;4.90;4.40;;;2.30;99.90;;;;;;4973797;28;20185;-56
2021/11/30 08:25:03;;;;;;;8.03;4.60;;;2.30;99.90;;;;;;4974524;28;20464;-56
2021/11/30 08:27:28;;;;;;;13.90;6.23;;;2.30;99.90;;;;;;4981630;28;20488;-53
2021/11/30 08:29:54;;;;;;;6.40;4.47;;;2.20;99.90;;;;;;4948263;28;20456;-55
2021/11/30 08:32:22;;;;;;;7.00;4.37;;;2.30;99.90;;;;;;4981041;28;20182;-57
2021/11/30 08:34:50;;;;;;;6.40;4.93;;;2.30;99.90;;;;;;4979166;28;20184;-57
2021/11/30 08:37:16;;;;;;;6.83;4.83;;;2.30;99.90;;;;;;4978444;28;20528;-56
2021/11/30 08:39:42;;;;;;;4.60;3.77;;;2.30;99.90;;;;;;4979398;28;20526;-57
2021/11/30 08:42:11;;;;;;;4.37;3.40;;;2.30;99.90;;;;;;4980202;28;20490;-57
2021/11/30 08:44:37;;;;;;;8.70;5.13;;;2.30;99.90;;;;;;4961132;28;21170;-57
2021/11/30 08:47:05;;;;;;;10.30;4.60;;;2.30;99.90;;;;;;4983108;28;20440;-58
2021/11/30 08:49:30;;;;;;;4.40;3.57;;;2.20;99.90;;;;;;4977907;28;20828;-56
2021/11/30 08:51:57;;;;;;;6.57;4.30;;;2.20;99.90;;;;;;4975913;28;20447;-56
2021/11/30 08:54:28;;;;;;;6.77;5.67;;;2.20;99.90;;;;;;4976726;28;20199;-55
2021/11/30 08:56:54;;;;;;;6.60;4.10;;;2.10;99.90;;;;;;4975974;28;20480;-54
2021/11/30 08:59:20;;;;;;;6.57;5.60;;;2.10;99.90;;;;;;4977276;28;20465;-57
2021/11/30 09:01:47;;;;;;;6.77;4.97;;;2.10;99.90;;;;;;4975583;28;20448;-56
2021/11/30 09:04:13;;;;;;;5.97;3.87;;;2.10;99.90;;;;;;4978125;28;20731;-55
2021/11/30 09:06:38;;;;;;;9.50;5.17;;;2.10;99.90;;;;;;4979972;28;20438;-56
2021/11/30 09:09:07;;;;;;;6.33;4.03;;;2.10;99.90;;;;;;4979306;28;20468;-54
2021/11/30 09:11:33;;;;;;;6.80;5.00;;;2.10;99.90;;;;;;4978772;28;20551;-55
2021/11/30 09:13:59;;;;;;;5.93;4.70;;;2.00;99.90;;;;;;4981402;28;24718;-52
2021/11/30 09:16:24;;;;;;;5.00;4.37;;;2.00;99.90;;;;;;4976865;28;20552;-55
2021/11/30 09:18:51;;;;;;;8.60;6.10;;;2.10;99.90;;;;;;4975861;28;20219;-52
2021/11/30 09:21:17;;;;;;;6.60;4.10;;;2.00;99.90;;;;;;4979547;28;20268;-55
2021/11/30 09:23:44;;;;;;;10.10;4.97;;;2.00;99.90;;;;;;4976323;28;20994;-56
2021/11/30 09:26:10;;;;;;;4.87;4.37;;;2.00;99.90;;;;;;4983076;28;20644;-51
2021/11/30 09:28:36;;;;;;;7.67;4.90;;;2.00;99.90;;;;;;4975800;28;20460;-58
2021/11/30 09:31:02;;;;;;;7.17;3.63;;;2.00;99.90;;;;;;4977446;28;20441;-55
2021/11/30 09:33:28;;;;;;;5.73;4.53;;;2.10;99.90;;;;;;4977268;28;20245;-57
2021/11/30 09:35:53;;;;;;;7.33;4.40;;;2.10;99.90;;;;;;4977675;28;21031;-57
2021/11/30 09:38:19;;;;;;;5.70;4.23;;;2.10;99.90;;;;;;4981924;28;20217;-57
2021/11/30 09:40:47;;;;;;;7.43;4.70;;;2.10;99.90;;;;;;4976134;28;20227;-57
2021/11/30 09:43:14;;;;;;;6.13;5.53;;;2.10;99.90;;;;;;4978264;28;20225;-55
2021/11/30 09:45:40;;;;;;;11.37;5.43;;;2.20;99.90;;;;;;4982440;28;20467;-52
2021/11/30 09:48:11;;;;;;;5.43;4.63;;;2.20;99.90;;;;;;4979231;28;21334;-49
2021/11/30 09:50:38;;;;;;;6.30;5.00;;;2.20;99.90;;;;;;4973771;28;20542;-54
2021/11/30 09:53:05;;;;;;;9.10;6.03;;;2.30;99.90;;;;;;4976190;28;20539;-55
2021/11/30 09:55:31;;;;;;;5.97;4.40;;;2.20;99.90;;;;;;4976311;28;21650;-57
2021/11/30 09:57:59;;;;;;;4.40;2.53;;;2.30;99.90;;;;;;4979435;28;20453;-55
2021/11/30 10:00:25;;;;;;;9.53;5.20;;;2.30;99.90;;;;;;4971850;28;20449;-54
2021/11/30 10:02:54;;;;;;;5.73;3.90;;;2.30;99.90;;;;;;4978212;28;20444;-54
2021/11/30 10:05:20;;;;;;;6.97;5.57;;;2.30;99.90;;;;;;4979494;28;20466;-52
2021/11/30 10:07:50;;;;;;;5.57;4.50;;;2.40;99.90;;;;;;4961053;28;20456;-52
2021/11/30 10:10:36;;;;;;;8.73;5.10;;;2.30;99.90;;;;;;4977737;28;20444;-51
2021/11/30 10:13:04;;;;;;;4.50;3.03;;;2.40;99.90;;;;;;4979065;28;20438;-51
2021/11/30 10:16:01;;;;;;;4.87;3.73;;;2.40;99.90;;;;;;4975296;28;20852;-49
2021/11/30 10:18:36;;;;;;;8.80;3.73;;;2.40;99.90;;;;;;4972685;28;20472;-53
2021/11/30 10:21:20;;;;;;;5.73;3.70;;;2.50;99.90;;;;;;4978959;28;20444;-50
2021/11/30 10:23:47;;;;;;;5.57;3.80;;;2.50;99.90;;;;;;4978068;28;20446;-56
2021/11/30 10:26:14;;;;;;;5.13;3.87;;;2.50;99.90;;;;;;4978301;28;21096;-51
2021/11/30 10:28:40;;;;;;;5.33;4.83;;;2.60;99.90;;;;;;4975467;28;20902;-53
2021/11/30 10:31:09;;;;;;;7.53;3.93;;;2.50;99.90;;;;;;4976510;28;20522;-49
2021/11/30 10:33:35;;;;;;;3.87;3.03;;;2.60;99.90;;;;;;4979482;28;20539;-55
2021/11/30 10:36:02;;;;;;;7.37;4.93;;;2.60;99.90;;;;;;4979280;28;20465;-55
2021/11/30 10:38:40;;;;;;;7.63;4.30;;;2.60;99.90;;;;;;4974424;28;20718;-49
2021/11/30 10:41:24;;;;;;;11.10;3.70;;;2.60;99.90;;;;;;4979652;28;20526;-54
2021/11/30 10:43:58;;;;;;;5.50;3.10;;;2.60;99.90;;;;;;4978748;28;20776;-52
2021/11/30 10:46:27;;;;;;;5.17;4.00;;;2.70;99.90;;;;;;4975242;28;20445;-50
2021/11/30 10:48:54;;;;;;;4.00;3.13;;;2.60;99.90;;;;;;4977021;28;20475;-56
2021/11/30 10:51:20;;;;;;;4.57;3.77;;;2.70;99.90;;;;;;4975989;28;20446;-54
2021/11/30 10:53:48;;;;;;;5.67;4.00;;;2.70;99.90;;;;;;4976049;28;20461;-52
2021/11/30 10:56:16;;;;;;;4.93;3.90;;;2.70;99.90;;;;;;4979522;28;20512;-50
2021/11/30 10:58:43;;;;;;;5.90;4.40;;;2.70;99.90;;;;;;4973313;28;20456;-54
2021/11/30 11:01:17;;;;;;;4.10;3.10;;;2.70;99.90;;;;;;4972272;28;20444;-53
2021/11/30 11:03:43;;;;;;;5.00;4.00;;;2.80;99.90;;;;;;4973886;28;21276;-50
2021/11/30 11:09:13;;;;;;;5.97;3.83;;;2.80;99.90;;;;;;4977051;28;20498;-50
2021/11/30 11:11:46;;;;;;;5.63;3.23;;;2.80;99.90;;;;;;4971511;28;20438;-54
2021/11/30 11:14:20;;;;;;;3.90;3.00;;;2.80;99.90;;;;;;4976540;28;20448;-55
2021/11/30 11:16:51;;;;;;;4.73;3.97;;;2.80;99.90;;;;;;4973722;28;20440;-51
2021/11/30 11:19:19;;;;;;;5.60;3.80;;;2.80;99.90;;;;;;4977557;28;20452;-54
2021/11/30 11:21:45;;;;;;;4.93;3.53;;;2.80;99.90;;;;;;4974632;28;20805;-52
2021/11/30 11:24:14;;;;;;;4.50;2.90;;;2.80;99.90;;;;;;4962663;28;21022;-53
2021/11/30 11:26:48;;;;;;;4.70;3.10;;;2.80;99.90;;;;;;4976112;28;20522;-54
2021/11/30 11:29:21;;;;;;;3.93;3.30;;;2.80;99.90;;;;;;4973121;28;20456;-54
2021/11/30 11:31:48;;;;;;;5.43;3.20;;;2.80;99.90;;;;;;4978169;28;20857;-56
2021/11/30 11:34:16;;;;;;;4.87;3.30;;;2.80;99.90;;;;;;4975849;28;20440;-54
2021/11/30 11:36:47;;;;;;;4.27;2.67;;;2.80;99.90;;;;;;4973720;28;20451;-53
2021/11/30 11:39:17;;;;;;;7.30;3.87;;;2.80;99.90;;;;;;4976587;28;20464;-53
2021/11/30 11:41:43;;;;;;;4.70;3.63;;;2.80;99.90;;;;;;4971203;28;20472;-51
2021/11/30 11:44:09;;;;;;;4.23;2.90;;;2.80;99.90;;;;;;4979103;28;20472;-53
2021/11/30 11:46:36;;;;;;;3.70;3.30;;;2.80;99.90;;;;;;4974556;28;20542;-53
2021/11/30 11:49:05;;;;;;;4.43;3.53;;;2.80;99.90;;;;;;4973998;28;20630;-52
2021/11/30 11:51:45;;;;;;;4.20;3.63;;;2.80;99.90;;;;;;4979347;28;20435;-53
2021/11/30 11:54:37;;;;;;;4.70;4.17;;;2.80;99.90;;;;;;4978074;28;20449;-51
2021/11/30 11:57:08;;;;;;;4.93;3.70;;;2.80;99.90;;;;;;4969187;28;20484;-52
2021/11/30 11:59:36;;;;;;;4.80;3.60;;;2.80;99.90;;;;;;4976034;28;22337;-54
2021/11/30 12:02:25;;;;;;;7.23;4.00;;;2.80;99.90;;;;;;4977481;28;20436;-50
2021/11/30 12:05:03;;;;;;;4.10;3.17;;;2.80;99.90;;;;;;4973373;28;20476;-52
2021/11/30 12:07:52;;;;;;;3.60;3.10;;;2.80;99.90;;;;;;4975646;28;20426;-52
2021/11/30 12:10:21;;;;;;;3.57;3.23;;;2.80;99.90;;;;;;4973116;28;20460;-52
2021/11/30 12:12:54;;;;;;;3.27;2.80;;;2.80;99.90;;;;;;4972004;28;20445;-52
2021/11/30 12:15:20;;;;;;;4.57;3.33;;;2.80;99.90;;;;;;4974538;28;20444;-53
2021/11/30 12:17:46;;;;;;;4.23;3.63;;;2.90;99.90;;;;;;4958806;28;20449;-54
2021/11/30 12:20:13;;;;;;;4.27;3.87;;;2.90;99.90;;;;;;4973852;28;20209;-54
2021/11/30 12:22:50;;;;;;;3.60;2.60;;;2.90;99.90;;;;;;5016591;23;20224;-58
2021/11/30 12:25:25;;;;;;;5.53;3.47;;;2.90;99.90;;;;;;5021515;28;20473;-55
2021/11/30 12:27:52;;;;;;;5.60;3.60;;;2.90;99.90;;;;;;5019950;28;20455;-57
2021/11/30 12:30:39;;;;;;;9.20;4.57;;;2.80;99.90;;;;;;5015214;28;20845;-56
2021/11/30 12:33:07;;;;;;;4.07;3.30;;;2.80;99.90;;;;;;5016758;28;20479;-56
2021/11/30 12:35:50;;;;;;;4.00;3.20;;;2.80;99.90;;;;;;5017233;28;20435;-55
2021/11/30 12:38:20;;;;;;;5.37;4.40;;;2.80;99.90;;;;;;5016159;28;20435;-56
2021/11/30 12:40:49;;;;;;;5.43;4.27;;;2.80;99.90;;;;;;5016498;28;20996;-55
2021/11/30 12:43:19;;;;;;;5.20;4.20;;;2.80;99.90;;;;;;5019234;28;20454;-56
2021/11/30 12:45:52;;;;;;;7.20;4.23;;;2.90;99.90;;;;;;5017748;28;20562;-54
2021/11/30 12:48:22;;;;;;;6.03;4.50;;;2.90;99.90;;;;;;5015197;28;20436;-53
2021/11/30 12:50:57;;;;;;;5.17;4.40;;;3.00;99.90;;;;;;5013481;28;20427;-52
2021/11/30 12:53:42;;;;;;;3.47;3.10;;;3.00;99.90;;;;;;5017465;28;20873;-49
2021/11/30 12:56:08;;;;;;;7.30;4.47;;;3.00;99.90;;;;;;5014855;28;20447;-52
2021/11/30 12:58:45;;;;;;;5.80;4.50;;;3.00;99.90;;;;;;5018389;28;20442;-51
2021/11/30 13:01:20;;;;;;;4.83;3.43;;;3.10;99.90;;;;;;5017365;28;20451;-51
2021/11/30 13:03:49;;;;;;;5.47;3.70;;;3.10;99.90;;;;;;5013345;28;20454;-54
2021/11/30 13:06:15;;;;;;;5.87;3.67;;;3.10;99.90;;;;;;5011242;28;20459;-54
2021/11/30 13:09:05;;;;;;;5.40;4.00;;;3.10;99.90;;;;;;5011965;28;20439;-52
2021/11/30 13:11:33;;;;;;;4.83;3.53;;;3.10;99.90;;;;;;5011460;28;21404;-52
2021/11/30 13:14:07;;;;;;;3.17;2.90;;;3.10;99.90;;;;;;5020205;28;20488;-52
2021/11/30 13:16:46;;;;;;;4.30;2.93;;;3.10;99.90;;;;;;5019133;28;20765;-55
2021/11/30 13:19:12;;;;;;;4.70;3.80;;;3.10;99.90;;;;;;5019730;28;20438;-52
2021/11/30 13:21:41;;;;;;;4.43;3.80;;;3.00;99.90;;;;;;5017268;28;20459;-53